sensor_id;sensor_type;location;lat;lon;timestamp;P1;durP1;ratioP1;P2;durP2;ratioP2
40757;SDS011;26462;47.384;19.218;2023-08-06T00:00:18;17.05;;;9.40;;
40757;SDS011;26462;47.384;19.218;2023-08-06T00:02:50;13.77;;;8.32;;
40757;SDS011;26462;47.384;19.218;2023-08-06T00:05:17;15.75;;;8.63;;
40757;SDS011;26462;47.384;19.218;2023-08-06T00:07:47;16.20;;;8.38;;
40757;SDS011;26462;47.384;19.218;2023-08-06T00:10:15;14.32;;;8.43;;
40757;SDS011;26462;47.384;19.218;2023-08-06T00:12:43;13.18;;;7.80;;
40757;SDS011;26462;47.384;19.218;2023-08-06T00:15:11;15.82;;;7.88;;
40757;SDS011;26462;47.384;19.218;2023-08-06T00:17:38;16.08;;;8.57;;
40757;SDS011;26462;47.384;19.218;2023-08-06T00:20:06;15.10;;;8.95;;
40757;SDS011;26462;47.384;19.218;2023-08-06T00:22:34;15.93;;;8.20;;
40757;SDS011;26462;47.384;19.218;2023-08-06T00:25:03;15.60;;;9.38;;
40757;SDS011;26462;47.384;19.218;2023-08-06T00:27:31;16.30;;;8.80;;
40757;SDS011;26462;47.384;19.218;2023-08-06T00:29:59;14.48;;;9.13;;
40757;SDS011;26462;47.384;19.218;2023-08-06T00:32:27;15.48;;;9.15;;
40757;SDS011;26462;47.384;19.218;2023-08-06T00:34:54;13.80;;;8.23;;
40757;SDS011;26462;47.384;19.218;2023-08-06T00:37:21;14.32;;;8.57;;
40757;SDS011;26462;47.384;19.218;2023-08-06T00:39:48;14.55;;;8.48;;
40757;SDS011;26462;47.384;19.218;2023-08-06T00:42:15;15.20;;;8.77;;
40757;SDS011;26462;47.384;19.218;2023-08-06T00:44:47;11.93;;;8.13;;
40757;SDS011;26462;47.384;19.218;2023-08-06T00:47:14;12.23;;;7.95;;
40757;SDS011;26462;47.384;19.218;2023-08-06T00:49:44;14.57;;;8.75;;
40757;SDS011;26462;47.384;19.218;2023-08-06T00:52:11;16.73;;;9.65;;
40757;SDS011;26462;47.384;19.218;2023-08-06T00:54:41;16.13;;;9.15;;
40757;SDS011;26462;47.384;19.218;2023-08-06T00:57:28;16.15;;;8.80;;
40757;SDS011;26462;47.384;19.218;2023-08-06T00:59:55;17.88;;;9.80;;
40757;SDS011;26462;47.384;19.218;2023-08-06T01:02:22;14.07;;;8.63;;
40757;SDS011;26462;47.384;19.218;2023-08-06T01:04:50;14.85;;;9.18;;
40757;SDS011;26462;47.384;19.218;2023-08-06T01:16:10;15.57;;;8.52;;
40757;SDS011;26462;47.384;19.218;2023-08-06T01:18:39;14.25;;;8.68;;
40757;SDS011;26462;47.384;19.218;2023-08-06T01:21:08;15.15;;;8.77;;
40757;SDS011;26462;47.384;19.218;2023-08-06T01:23:45;13.75;;;9.18;;
40757;SDS011;26462;47.384;19.218;2023-08-06T01:26:17;12.80;;;7.80;;
40757;SDS011;26462;47.384;19.218;2023-08-06T01:29:06;14.70;;;8.68;;
40757;SDS011;26462;47.384;19.218;2023-08-06T01:31:38;14.45;;;8.68;;
40757;SDS011;26462;47.384;19.218;2023-08-06T01:34:09;11.55;;;7.25;;
40757;SDS011;26462;47.384;19.218;2023-08-06T01:36:41;12.45;;;7.72;;
40757;SDS011;26462;47.384;19.218;2023-08-06T01:39:08;11.75;;;7.35;;
40757;SDS011;26462;47.384;19.218;2023-08-06T01:41:38;11.23;;;6.85;;
40757;SDS011;26462;47.384;19.218;2023-08-06T01:44:05;11.15;;;6.93;;
40757;SDS011;26462;47.384;19.218;2023-08-06T01:46:33;13.50;;;8.30;;
40757;SDS011;26462;47.384;19.218;2023-08-06T01:49:00;14.18;;;7.72;;
40757;SDS011;26462;47.384;19.218;2023-08-06T01:51:27;12.63;;;7.65;;
40757;SDS011;26462;47.384;19.218;2023-08-06T01:53:54;12.73;;;7.50;;
40757;SDS011;26462;47.384;19.218;2023-08-06T01:56:24;12.15;;;7.47;;
40757;SDS011;26462;47.384;19.218;2023-08-06T01:58:51;10.48;;;6.97;;
40757;SDS011;26462;47.384;19.218;2023-08-06T02:01:19;10.98;;;6.70;;
40757;SDS011;26462;47.384;19.218;2023-08-06T02:03:46;13.52;;;7.13;;
40757;SDS011;26462;47.384;19.218;2023-08-06T02:06:13;11.93;;;6.93;;
40757;SDS011;26462;47.384;19.218;2023-08-06T02:08:40;11.52;;;7.15;;
40757;SDS011;26462;47.384;19.218;2023-08-06T02:11:07;9.68;;;6.07;;
40757;SDS011;26462;47.384;19.218;2023-08-06T02:13:34;12.30;;;6.97;;
40757;SDS011;26462;47.384;19.218;2023-08-06T02:16:03;10.70;;;5.75;;
40757;SDS011;26462;47.384;19.218;2023-08-06T02:18:35;12.82;;;6.57;;
40757;SDS011;26462;47.384;19.218;2023-08-06T02:21:02;11.10;;;6.10;;
40757;SDS011;26462;47.384;19.218;2023-08-06T02:23:31;11.25;;;5.72;;
40757;SDS011;26462;47.384;19.218;2023-08-06T02:26:02;9.50;;;5.57;;
40757;SDS011;26462;47.384;19.218;2023-08-06T02:28:31;10.18;;;6.13;;
40757;SDS011;26462;47.384;19.218;2023-08-06T02:30:59;10.65;;;6.13;;
40757;SDS011;26462;47.384;19.218;2023-08-06T02:33:27;9.95;;;6.22;;
40757;SDS011;26462;47.384;19.218;2023-08-06T02:36:01;8.98;;;5.57;;
40757;SDS011;26462;47.384;19.218;2023-08-06T02:38:31;8.80;;;5.32;;
40757;SDS011;26462;47.384;19.218;2023-08-06T02:40:59;11.63;;;6.00;;
40757;SDS011;26462;47.384;19.218;2023-08-06T02:43:31;7.60;;;5.00;;
40757;SDS011;26462;47.384;19.218;2023-08-06T02:45:59;8.80;;;5.88;;
40757;SDS011;26462;47.384;19.218;2023-08-06T02:48:28;11.77;;;6.25;;
40757;SDS011;26462;47.384;19.218;2023-08-06T02:50:58;9.45;;;5.07;;
40757;SDS011;26462;47.384;19.218;2023-08-06T02:53:29;9.13;;;5.70;;
40757;SDS011;26462;47.384;19.218;2023-08-06T02:55:58;7.53;;;5.22;;
40757;SDS011;26462;47.384;19.218;2023-08-06T02:58:34;8.15;;;4.78;;
40757;SDS011;26462;47.384;19.218;2023-08-06T03:01:10;9.02;;;4.95;;
40757;SDS011;26462;47.384;19.218;2023-08-06T03:03:44;13.55;;;6.35;;
40757;SDS011;26462;47.384;19.218;2023-08-06T03:06:18;9.80;;;5.47;;
40757;SDS011;26462;47.384;19.218;2023-08-06T03:08:48;10.60;;;5.28;;
40757;SDS011;26462;47.384;19.218;2023-08-06T03:11:17;9.02;;;5.75;;
40757;SDS011;26462;47.384;19.218;2023-08-06T03:13:46;10.32;;;6.00;;
40757;SDS011;26462;47.384;19.218;2023-08-06T03:16:15;11.48;;;6.13;;
40757;SDS011;26462;47.384;19.218;2023-08-06T03:18:43;10.50;;;5.80;;
40757;SDS011;26462;47.384;19.218;2023-08-06T03:21:10;10.27;;;6.00;;
40757;SDS011;26462;47.384;19.218;2023-08-06T03:23:37;10.77;;;6.20;;
40757;SDS011;26462;47.384;19.218;2023-08-06T03:26:06;8.65;;;5.53;;
40757;SDS011;26462;47.384;19.218;2023-08-06T03:28:35;10.10;;;5.60;;
40757;SDS011;26462;47.384;19.218;2023-08-06T03:31:04;9.43;;;5.57;;
40757;SDS011;26462;47.384;19.218;2023-08-06T03:33:39;7.78;;;4.78;;
40757;SDS011;26462;47.384;19.218;2023-08-06T03:36:12;8.23;;;4.68;;
40757;SDS011;26462;47.384;19.218;2023-08-06T03:38:40;8.13;;;4.68;;
40757;SDS011;26462;47.384;19.218;2023-08-06T03:41:10;8.02;;;4.93;;
40757;SDS011;26462;47.384;19.218;2023-08-06T03:43:42;9.40;;;5.15;;
40757;SDS011;26462;47.384;19.218;2023-08-06T03:46:15;8.27;;;5.00;;
40757;SDS011;26462;47.384;19.218;2023-08-06T03:48:43;7.35;;;4.78;;
40757;SDS011;26462;47.384;19.218;2023-08-06T03:51:13;8.20;;;4.85;;
40757;SDS011;26462;47.384;19.218;2023-08-06T03:53:43;8.80;;;4.32;;
40757;SDS011;26462;47.384;19.218;2023-08-06T03:56:10;8.15;;;4.93;;
40757;SDS011;26462;47.384;19.218;2023-08-06T03:58:39;8.18;;;4.88;;
40757;SDS011;26462;47.384;19.218;2023-08-06T04:01:07;10.90;;;4.95;;
40757;SDS011;26462;47.384;19.218;2023-08-06T04:03:45;8.80;;;4.30;;
40757;SDS011;26462;47.384;19.218;2023-08-06T04:06:13;7.07;;;4.07;;
40757;SDS011;26462;47.384;19.218;2023-08-06T04:08:40;7.57;;;4.28;;
40757;SDS011;26462;47.384;19.218;2023-08-06T04:11:07;5.70;;;3.35;;
40757;SDS011;26462;47.384;19.218;2023-08-06T04:13:35;6.68;;;3.63;;
40757;SDS011;26462;47.384;19.218;2023-08-06T04:16:02;5.65;;;3.53;;
40757;SDS011;26462;47.384;19.218;2023-08-06T04:18:31;8.65;;;3.83;;
40757;SDS011;26462;47.384;19.218;2023-08-06T04:20:58;4.60;;;2.95;;
40757;SDS011;26462;47.384;19.218;2023-08-06T04:23:25;5.80;;;3.10;;
40757;SDS011;26462;47.384;19.218;2023-08-06T04:25:57;6.50;;;3.60;;
40757;SDS011;26462;47.384;19.218;2023-08-06T04:28:29;6.70;;;3.78;;
40757;SDS011;26462;47.384;19.218;2023-08-06T04:30:58;8.82;;;4.28;;
40757;SDS011;26462;47.384;19.218;2023-08-06T04:33:27;6.47;;;3.90;;
40757;SDS011;26462;47.384;19.218;2023-08-06T04:35:56;8.65;;;4.63;;
40757;SDS011;26462;47.384;19.218;2023-08-06T04:38:25;6.57;;;3.97;;
40757;SDS011;26462;47.384;19.218;2023-08-06T04:40:53;8.00;;;3.92;;
40757;SDS011;26462;47.384;19.218;2023-08-06T04:43:22;9.27;;;4.05;;
40757;SDS011;26462;47.384;19.218;2023-08-06T04:45:50;10.63;;;4.85;;
40757;SDS011;26462;47.384;19.218;2023-08-06T04:48:18;9.00;;;5.05;;
40757;SDS011;26462;47.384;19.218;2023-08-06T04:50:49;9.32;;;4.53;;
40757;SDS011;26462;47.384;19.218;2023-08-06T04:53:17;8.50;;;4.70;;
40757;SDS011;26462;47.384;19.218;2023-08-06T04:55:44;9.48;;;4.38;;
40757;SDS011;26462;47.384;19.218;2023-08-06T04:58:12;13.88;;;3.33;;
40757;SDS011;26462;47.384;19.218;2023-08-06T05:00:42;5.97;;;2.90;;
40757;SDS011;26462;47.384;19.218;2023-08-06T05:03:09;3.78;;;2.40;;
40757;SDS011;26462;47.384;19.218;2023-08-06T05:05:40;6.57;;;2.17;;
40757;SDS011;26462;47.384;19.218;2023-08-06T05:08:13;3.93;;;1.70;;
40757;SDS011;26462;47.384;19.218;2023-08-06T05:10:43;3.40;;;1.58;;
40757;SDS011;26462;47.384;19.218;2023-08-06T05:13:11;4.38;;;1.52;;
40757;SDS011;26462;47.384;19.218;2023-08-06T05:15:44;5.25;;;1.92;;
40757;SDS011;26462;47.384;19.218;2023-08-06T05:18:12;2.97;;;1.83;;
40757;SDS011;26462;47.384;19.218;2023-08-06T05:20:40;2.88;;;1.80;;
40757;SDS011;26462;47.384;19.218;2023-08-06T05:23:08;2.88;;;1.80;;
40757;SDS011;26462;47.384;19.218;2023-08-06T05:25:35;2.30;;;1.20;;
40757;SDS011;26462;47.384;19.218;2023-08-06T05:28:03;2.45;;;0.82;;
40757;SDS011;26462;47.384;19.218;2023-08-06T05:30:31;1.83;;;0.70;;
40757;SDS011;26462;47.384;19.218;2023-08-06T05:32:58;0.90;;;0.40;;
40757;SDS011;26462;47.384;19.218;2023-08-06T05:35:25;1.23;;;0.30;;
40757;SDS011;26462;47.384;19.218;2023-08-06T05:37:53;0.93;;;0.30;;
40757;SDS011;26462;47.384;19.218;2023-08-06T05:40:20;1.65;;;0.30;;
40757;SDS011;26462;47.384;19.218;2023-08-06T05:42:48;0.65;;;0.35;;
40757;SDS011;26462;47.384;19.218;2023-08-06T05:45:15;1.20;;;0.20;;
40757;SDS011;26462;47.384;19.218;2023-08-06T05:47:42;0.32;;;0.10;;
40757;SDS011;26462;47.384;19.218;2023-08-06T05:50:12;0.55;;;0.20;;
40757;SDS011;26462;47.384;19.218;2023-08-06T05:52:43;0.85;;;0.10;;
40757;SDS011;26462;47.384;19.218;2023-08-06T05:55:10;1.77;;;0.10;;
40757;SDS011;26462;47.384;19.218;2023-08-06T05:57:37;1.98;;;0.10;;
40757;SDS011;26462;47.384;19.218;2023-08-06T06:00:04;0.98;;;0.20;;
40757;SDS011;26462;47.384;19.218;2023-08-06T06:02:37;0.40;;;0.15;;
40757;SDS011;26462;47.384;19.218;2023-08-06T06:05:04;2.28;;;0.10;;
40757;SDS011;26462;47.384;19.218;2023-08-06T06:07:32;0.30;;;0.10;;
40757;SDS011;26462;47.384;19.218;2023-08-06T06:09:59;0.20;;;0.10;;
40757;SDS011;26462;47.384;19.218;2023-08-06T06:12:26;0.28;;;0.08;;
40757;SDS011;26462;47.384;19.218;2023-08-06T06:14:53;0.47;;;0.10;;
40757;SDS011;26462;47.384;19.218;2023-08-06T06:17:20;0.47;;;0.00;;
40757;SDS011;26462;47.384;19.218;2023-08-06T06:19:47;0.05;;;0.00;;
40757;SDS011;26462;47.384;19.218;2023-08-06T06:22:15;0.20;;;0.00;;
40757;SDS011;26462;47.384;19.218;2023-08-06T06:24:42;0.00;;;0.00;;
40757;SDS011;26462;47.384;19.218;2023-08-06T06:27:09;0.20;;;0.00;;
40757;SDS011;26462;47.384;19.218;2023-08-06T06:29:36;0.10;;;0.00;;
40757;SDS011;26462;47.384;19.218;2023-08-06T06:32:03;1.10;;;0.00;;
40757;SDS011;26462;47.384;19.218;2023-08-06T06:34:30;0.10;;;0.00;;
40757;SDS011;26462;47.384;19.218;2023-08-06T06:36:57;0.75;;;0.00;;
40757;SDS011;26462;47.384;19.218;2023-08-06T06:39:24;0.98;;;0.10;;
40757;SDS011;26462;47.384;19.218;2023-08-06T06:41:51;0.17;;;0.00;;
40757;SDS011;26462;47.384;19.218;2023-08-06T06:44:28;0.77;;;0.10;;
40757;SDS011;26462;47.384;19.218;2023-08-06T06:46:55;0.10;;;0.10;;
40757;SDS011;26462;47.384;19.218;2023-08-06T06:49:22;0.10;;;0.10;;
40757;SDS011;26462;47.384;19.218;2023-08-06T06:51:49;0.10;;;0.10;;
40757;SDS011;26462;47.384;19.218;2023-08-06T06:54:17;0.80;;;0.10;;
40757;SDS011;26462;47.384;19.218;2023-08-06T06:56:44;0.17;;;0.10;;
40757;SDS011;26462;47.384;19.218;2023-08-06T06:59:12;0.25;;;0.10;;
40757;SDS011;26462;47.384;19.218;2023-08-06T07:01:39;0.22;;;0.10;;
40757;SDS011;26462;47.384;19.218;2023-08-06T07:04:06;1.48;;;0.20;;
40757;SDS011;26462;47.384;19.218;2023-08-06T07:06:33;0.30;;;0.30;;
40757;SDS011;26462;47.384;19.218;2023-08-06T07:09:00;0.20;;;0.10;;
40757;SDS011;26462;47.384;19.218;2023-08-06T07:11:30;0.20;;;0.10;;
40757;SDS011;26462;47.384;19.218;2023-08-06T07:13:58;0.10;;;0.10;;
40757;SDS011;26462;47.384;19.218;2023-08-06T07:16:27;0.28;;;0.20;;
40757;SDS011;26462;47.384;19.218;2023-08-06T07:18:55;0.20;;;0.10;;
40757;SDS011;26462;47.384;19.218;2023-08-06T07:21:26;0.13;;;0.10;;
40757;SDS011;26462;47.384;19.218;2023-08-06T07:23:55;0.22;;;0.10;;
40757;SDS011;26462;47.384;19.218;2023-08-06T07:26:22;0.17;;;0.10;;
40757;SDS011;26462;47.384;19.218;2023-08-06T07:28:49;0.93;;;0.10;;
40757;SDS011;26462;47.384;19.218;2023-08-06T07:31:17;0.80;;;0.20;;
40757;SDS011;26462;47.384;19.218;2023-08-06T07:33:44;0.30;;;0.10;;
40757;SDS011;26462;47.384;19.218;2023-08-06T07:36:11;0.50;;;0.10;;
40757;SDS011;26462;47.384;19.218;2023-08-06T07:38:40;0.20;;;0.20;;
40757;SDS011;26462;47.384;19.218;2023-08-06T07:41:08;0.20;;;0.10;;
40757;SDS011;26462;47.384;19.218;2023-08-06T07:43:37;0.30;;;0.10;;
40757;SDS011;26462;47.384;19.218;2023-08-06T07:46:07;1.00;;;0.10;;
40757;SDS011;26462;47.384;19.218;2023-08-06T07:48:42;0.93;;;0.10;;
40757;SDS011;26462;47.384;19.218;2023-08-06T07:51:12;0.10;;;0.10;;
40757;SDS011;26462;47.384;19.218;2023-08-06T07:53:39;0.80;;;0.10;;
40757;SDS011;26462;47.384;19.218;2023-08-06T07:56:06;0.82;;;0.10;;
40757;SDS011;26462;47.384;19.218;2023-08-06T07:58:34;0.20;;;0.10;;
40757;SDS011;26462;47.384;19.218;2023-08-06T08:01:01;0.10;;;0.00;;
40757;SDS011;26462;47.384;19.218;2023-08-06T08:03:31;0.00;;;0.00;;
40757;SDS011;26462;47.384;19.218;2023-08-06T08:06:05;0.98;;;0.00;;
40757;SDS011;26462;47.384;19.218;2023-08-06T08:08:38;0.45;;;0.00;;
40757;SDS011;26462;47.384;19.218;2023-08-06T08:11:06;5.72;;;0.95;;
40757;SDS011;26462;47.384;19.218;2023-08-06T08:13:35;0.55;;;0.08;;
40757;SDS011;26462;47.384;19.218;2023-08-06T08:16:04;0.00;;;0.00;;
40757;SDS011;26462;47.384;19.218;2023-08-06T08:18:32;0.00;;;0.00;;
40757;SDS011;26462;47.384;19.218;2023-08-06T08:20:59;1.25;;;0.00;;
40757;SDS011;26462;47.384;19.218;2023-08-06T08:23:26;0.10;;;0.00;;
40757;SDS011;26462;47.384;19.218;2023-08-06T08:25:59;0.00;;;0.00;;
40757;SDS011;26462;47.384;19.218;2023-08-06T08:28:30;0.00;;;0.00;;
40757;SDS011;26462;47.384;19.218;2023-08-06T08:31:17;0.75;;;0.00;;
40757;SDS011;26462;47.384;19.218;2023-08-06T08:33:52;0.00;;;0.00;;
40757;SDS011;26462;47.384;19.218;2023-08-06T08:36:22;0.28;;;0.00;;
40757;SDS011;26462;47.384;19.218;2023-08-06T08:38:53;0.10;;;0.00;;
40757;SDS011;26462;47.384;19.218;2023-08-06T08:41:23;0.00;;;0.00;;
40757;SDS011;26462;47.384;19.218;2023-08-06T08:43:50;0.65;;;0.00;;
40757;SDS011;26462;47.384;19.218;2023-08-06T08:46:19;0.10;;;0.00;;
40757;SDS011;26462;47.384;19.218;2023-08-06T08:48:46;0.10;;;0.00;;
40757;SDS011;26462;47.384;19.218;2023-08-06T08:51:14;0.00;;;0.00;;
40757;SDS011;26462;47.384;19.218;2023-08-06T08:53:51;0.08;;;0.00;;
40757;SDS011;26462;47.384;19.218;2023-08-06T08:59:25;0.73;;;0.00;;
40757;SDS011;26462;47.384;19.218;2023-08-06T09:01:54;0.00;;;0.00;;
40757;SDS011;26462;47.384;19.218;2023-08-06T09:04:23;0.47;;;0.00;;
40757;SDS011;26462;47.384;19.218;2023-08-06T09:06:53;0.00;;;0.00;;
40757;SDS011;26462;47.384;19.218;2023-08-06T09:09:30;0.00;;;0.00;;
40757;SDS011;26462;47.384;19.218;2023-08-06T09:12:00;0.10;;;0.00;;
40757;SDS011;26462;47.384;19.218;2023-08-06T09:14:29;0.10;;;0.00;;
40757;SDS011;26462;47.384;19.218;2023-08-06T09:16:57;1.65;;;0.00;;
40757;SDS011;26462;47.384;19.218;2023-08-06T09:19:25;0.17;;;0.00;;
40757;SDS011;26462;47.384;19.218;2023-08-06T09:21:59;0.10;;;0.00;;
40757;SDS011;26462;47.384;19.218;2023-08-06T09:24:27;0.40;;;0.00;;
40757;SDS011;26462;47.384;19.218;2023-08-06T09:26:54;0.10;;;0.00;;
40757;SDS011;26462;47.384;19.218;2023-08-06T09:29:21;0.20;;;0.10;;
40757;SDS011;26462;47.384;19.218;2023-08-06T09:31:49;0.10;;;0.00;;
40757;SDS011;26462;47.384;19.218;2023-08-06T09:34:20;0.10;;;0.00;;
40757;SDS011;26462;47.384;19.218;2023-08-06T09:36:54;0.10;;;0.05;;
40757;SDS011;26462;47.384;19.218;2023-08-06T09:39:26;0.23;;;0.10;;
40757;SDS011;26462;47.384;19.218;2023-08-06T09:41:58;3.00;;;0.80;;
40757;SDS011;26462;47.384;19.218;2023-08-06T09:44:27;0.45;;;0.10;;
40757;SDS011;26462;47.384;19.218;2023-08-06T09:46:56;0.82;;;0.10;;
40757;SDS011;26462;47.384;19.218;2023-08-06T09:52:00;0.73;;;0.10;;
40757;SDS011;26462;47.384;19.218;2023-08-06T09:54:27;0.20;;;0.10;;
40757;SDS011;26462;47.384;19.218;2023-08-06T09:56:56;0.30;;;0.10;;
40757;SDS011;26462;47.384;19.218;2023-08-06T09:59:24;0.20;;;0.10;;
40757;SDS011;26462;47.384;19.218;2023-08-06T10:01:52;0.43;;;0.20;;
40757;SDS011;26462;47.384;19.218;2023-08-06T10:04:22;0.20;;;0.10;;
40757;SDS011;26462;47.384;19.218;2023-08-06T10:07:04;0.20;;;0.10;;
40757;SDS011;26462;47.384;19.218;2023-08-06T10:09:31;0.20;;;0.10;;
40757;SDS011;26462;47.384;19.218;2023-08-06T10:11:58;0.40;;;0.10;;
40757;SDS011;26462;47.384;19.218;2023-08-06T10:14:32;0.30;;;0.20;;
40757;SDS011;26462;47.384;19.218;2023-08-06T10:17:02;0.28;;;0.20;;
40757;SDS011;26462;47.384;19.218;2023-08-06T10:19:30;0.63;;;0.10;;
40757;SDS011;26462;47.384;19.218;2023-08-06T10:22:15;0.50;;;0.20;;
40757;SDS011;26462;47.384;19.218;2023-08-06T10:27:21;0.60;;;0.20;;
40757;SDS011;26462;47.384;19.218;2023-08-06T10:30:42;0.20;;;0.10;;
40757;SDS011;26462;47.384;19.218;2023-08-06T10:32:51;0.20;;;0.10;;
40757;SDS011;26462;47.384;19.218;2023-08-06T10:38:03;0.10;;;0.00;;
40757;SDS011;26462;47.384;19.218;2023-08-06T10:40:37;0.40;;;0.10;;
40757;SDS011;26462;47.384;19.218;2023-08-06T10:43:06;0.30;;;0.10;;
40757;SDS011;26462;47.384;19.218;2023-08-06T10:45:37;0.20;;;0.05;;
40757;SDS011;26462;47.384;19.218;2023-08-06T10:48:04;0.10;;;0.00;;
40757;SDS011;26462;47.384;19.218;2023-08-06T10:50:32;0.95;;;0.10;;
40757;SDS011;26462;47.384;19.218;2023-08-06T10:53:03;0.20;;;0.00;;
40757;SDS011;26462;47.384;19.218;2023-08-06T10:55:32;0.17;;;0.00;;
40757;SDS011;26462;47.384;19.218;2023-08-06T10:57:59;0.40;;;0.10;;
40757;SDS011;26462;47.384;19.218;2023-08-06T11:00:27;0.10;;;0.00;;
40757;SDS011;26462;47.384;19.218;2023-08-06T11:02:54;0.10;;;0.00;;
40757;SDS011;26462;47.384;19.218;2023-08-06T11:05:21;2.22;;;0.10;;
40757;SDS011;26462;47.384;19.218;2023-08-06T11:07:48;1.20;;;0.00;;
40757;SDS011;26462;47.384;19.218;2023-08-06T11:10:17;0.93;;;0.13;;
40757;SDS011;26462;47.384;19.218;2023-08-06T11:12:45;1.27;;;0.00;;
40757;SDS011;26462;47.384;19.218;2023-08-06T11:15:12;0.32;;;0.00;;
40757;SDS011;26462;47.384;19.218;2023-08-06T11:17:40;0.00;;;0.00;;
40757;SDS011;26462;47.384;19.218;2023-08-06T11:20:09;0.38;;;0.10;;
40757;SDS011;26462;47.384;19.218;2023-08-06T11:22:37;0.20;;;0.10;;
40757;SDS011;26462;47.384;19.218;2023-08-06T11:25:09;0.10;;;0.00;;
40757;SDS011;26462;47.384;19.218;2023-08-06T11:27:36;0.20;;;0.10;;
40757;SDS011;26462;47.384;19.218;2023-08-06T11:30:03;0.10;;;0.00;;
40757;SDS011;26462;47.384;19.218;2023-08-06T11:32:31;0.63;;;0.03;;
40757;SDS011;26462;47.384;19.218;2023-08-06T11:35:08;0.35;;;0.03;;
40757;SDS011;26462;47.384;19.218;2023-08-06T11:37:38;0.30;;;0.00;;
40757;SDS011;26462;47.384;19.218;2023-08-06T11:40:10;0.30;;;0.00;;
40757;SDS011;26462;47.384;19.218;2023-08-06T11:42:40;0.10;;;0.00;;
40757;SDS011;26462;47.384;19.218;2023-08-06T11:45:09;0.77;;;0.10;;
40757;SDS011;26462;47.384;19.218;2023-08-06T11:47:39;0.52;;;0.05;;
40757;SDS011;26462;47.384;19.218;2023-08-06T11:50:09;0.30;;;0.10;;
40757;SDS011;26462;47.384;19.218;2023-08-06T11:52:57;1.55;;;0.15;;
40757;SDS011;26462;47.384;19.218;2023-08-06T11:55:28;0.30;;;0.10;;
40757;SDS011;26462;47.384;19.218;2023-08-06T11:57:56;1.95;;;0.10;;
40757;SDS011;26462;47.384;19.218;2023-08-06T12:00:24;0.22;;;0.10;;
40757;SDS011;26462;47.384;19.218;2023-08-06T12:02:52;0.30;;;0.10;;
40757;SDS011;26462;47.384;19.218;2023-08-06T12:05:22;0.75;;;0.10;;
40757;SDS011;26462;47.384;19.218;2023-08-06T12:07:58;1.80;;;0.13;;
40757;SDS011;26462;47.384;19.218;2023-08-06T12:10:27;0.95;;;0.17;;
40757;SDS011;26462;47.384;19.218;2023-08-06T12:12:57;1.13;;;0.10;;
40757;SDS011;26462;47.384;19.218;2023-08-06T12:15:28;0.82;;;0.20;;
40757;SDS011;26462;47.384;19.218;2023-08-06T12:17:58;0.40;;;0.10;;
40757;SDS011;26462;47.384;19.218;2023-08-06T12:20:25;0.20;;;0.00;;
40757;SDS011;26462;47.384;19.218;2023-08-06T12:22:54;0.17;;;0.17;;
40757;SDS011;26462;47.384;19.218;2023-08-06T12:25:21;0.35;;;0.10;;
40757;SDS011;26462;47.384;19.218;2023-08-06T12:27:49;0.28;;;0.10;;
40757;SDS011;26462;47.384;19.218;2023-08-06T12:30:17;0.30;;;0.10;;
40757;SDS011;26462;47.384;19.218;2023-08-06T12:32:47;0.20;;;0.10;;
40757;SDS011;26462;47.384;19.218;2023-08-06T12:35:15;0.43;;;0.10;;
40757;SDS011;26462;47.384;19.218;2023-08-06T12:37:42;0.63;;;0.10;;
40757;SDS011;26462;47.384;19.218;2023-08-06T12:40:10;0.40;;;0.10;;
40757;SDS011;26462;47.384;19.218;2023-08-06T12:42:58;0.20;;;0.10;;
40757;SDS011;26462;47.384;19.218;2023-08-06T12:45:27;0.32;;;0.10;;
40757;SDS011;26462;47.384;19.218;2023-08-06T12:47:54;1.35;;;0.30;;
40757;SDS011;26462;47.384;19.218;2023-08-06T12:50:23;0.20;;;0.10;;
40757;SDS011;26462;47.384;19.218;2023-08-06T12:52:50;0.20;;;0.10;;
40757;SDS011;26462;47.384;19.218;2023-08-06T12:55:17;0.40;;;0.20;;
40757;SDS011;26462;47.384;19.218;2023-08-06T12:57:44;0.32;;;0.10;;
40757;SDS011;26462;47.384;19.218;2023-08-06T13:00:23;1.73;;;0.32;;
40757;SDS011;26462;47.384;19.218;2023-08-06T13:02:51;0.93;;;0.60;;
40757;SDS011;26462;47.384;19.218;2023-08-06T13:05:20;0.32;;;0.10;;
40757;SDS011;26462;47.384;19.218;2023-08-06T13:07:48;0.45;;;0.10;;
40757;SDS011;26462;47.384;19.218;2023-08-06T13:10:16;0.28;;;0.10;;
40757;SDS011;26462;47.384;19.218;2023-08-06T13:12:43;0.60;;;0.10;;
40757;SDS011;26462;47.384;19.218;2023-08-06T13:15:11;2.67;;;0.10;;
40757;SDS011;26462;47.384;19.218;2023-08-06T13:17:41;1.00;;;0.10;;
40757;SDS011;26462;47.384;19.218;2023-08-06T13:20:09;0.57;;;0.10;;
40757;SDS011;26462;47.384;19.218;2023-08-06T13:22:37;0.47;;;0.20;;
40757;SDS011;26462;47.384;19.218;2023-08-06T13:25:05;5.35;;;0.55;;
40757;SDS011;26462;47.384;19.218;2023-08-06T13:27:34;0.95;;;0.10;;
40757;SDS011;26462;47.384;19.218;2023-08-06T13:30:05;0.73;;;0.10;;
40757;SDS011;26462;47.384;19.218;2023-08-06T13:32:33;0.28;;;0.10;;
40757;SDS011;26462;47.384;19.218;2023-08-06T13:35:05;0.40;;;0.17;;
40757;SDS011;26462;47.384;19.218;2023-08-06T13:37:34;1.17;;;0.30;;
40757;SDS011;26462;47.384;19.218;2023-08-06T13:40:02;0.25;;;0.10;;
40757;SDS011;26462;47.384;19.218;2023-08-06T13:42:50;0.50;;;0.20;;
40757;SDS011;26462;47.384;19.218;2023-08-06T13:45:18;0.95;;;0.25;;
40757;SDS011;26462;47.384;19.218;2023-08-06T13:47:45;0.50;;;0.20;;
40757;SDS011;26462;47.384;19.218;2023-08-06T13:50:13;0.80;;;0.38;;
40757;SDS011;26462;47.384;19.218;2023-08-06T13:52:58;0.60;;;0.30;;
40757;SDS011;26462;47.384;19.218;2023-08-06T13:55:25;0.93;;;0.40;;
40757;SDS011;26462;47.384;19.218;2023-08-06T13:57:57;1.45;;;0.50;;
40757;SDS011;26462;47.384;19.218;2023-08-06T14:00:24;1.15;;;0.30;;
40757;SDS011;26462;47.384;19.218;2023-08-06T14:02:52;0.50;;;0.38;;
40757;SDS011;26462;47.384;19.218;2023-08-06T14:05:21;2.08;;;0.35;;
40757;SDS011;26462;47.384;19.218;2023-08-06T14:07:50;0.70;;;0.40;;
40757;SDS011;26462;47.384;19.218;2023-08-06T14:10:17;0.57;;;0.35;;
40757;SDS011;26462;47.384;19.218;2023-08-06T14:12:48;0.73;;;0.52;;
40757;SDS011;26462;47.384;19.218;2023-08-06T14:15:34;1.23;;;0.55;;
40757;SDS011;26462;47.384;19.218;2023-08-06T14:18:04;0.90;;;0.40;;
40757;SDS011;26462;47.384;19.218;2023-08-06T14:20:32;1.02;;;0.40;;
40757;SDS011;26462;47.384;19.218;2023-08-06T14:23:01;0.70;;;0.50;;
40757;SDS011;26462;47.384;19.218;2023-08-06T14:25:29;1.10;;;0.40;;
40757;SDS011;26462;47.384;19.218;2023-08-06T14:27:58;0.68;;;0.30;;
40757;SDS011;26462;47.384;19.218;2023-08-06T14:30:26;1.77;;;0.47;;
40757;SDS011;26462;47.384;19.218;2023-08-06T14:32:58;1.73;;;0.50;;
40757;SDS011;26462;47.384;19.218;2023-08-06T14:35:44;1.38;;;0.40;;
40757;SDS011;26462;47.384;19.218;2023-08-06T14:38:12;1.10;;;0.50;;
40757;SDS011;26462;47.384;19.218;2023-08-06T14:40:43;1.20;;;0.50;;
40757;SDS011;26462;47.384;19.218;2023-08-06T14:43:12;0.80;;;0.40;;
40757;SDS011;26462;47.384;19.218;2023-08-06T14:45:45;1.13;;;0.38;;
40757;SDS011;26462;47.384;19.218;2023-08-06T14:51:13;0.60;;;0.30;;
40757;SDS011;26462;47.384;19.218;2023-08-06T14:53:41;0.90;;;0.47;;
40757;SDS011;26462;47.384;19.218;2023-08-06T14:56:08;1.42;;;0.50;;
40757;SDS011;26462;47.384;19.218;2023-08-06T14:58:37;1.25;;;0.52;;
40757;SDS011;26462;47.384;19.218;2023-08-06T15:01:05;1.58;;;0.65;;
40757;SDS011;26462;47.384;19.218;2023-08-06T15:03:34;1.77;;;0.50;;
40757;SDS011;26462;47.384;19.218;2023-08-06T15:06:02;3.40;;;0.70;;